Strona główna
METAR-TAF:

METAR-TAF

Lotnisko :

North Kingstown, Rhode Island, Stany Zjednoczone

Szerokość geograficzna: 41-36N, Długość geograficzna: 071-25W, wysokość: 6 m

Aktualna obserwacja pogody

Raport powstał 26 minut temu, godzina 02:50 UTC
Wiatr 30 kt od północny wschód
Temperatura 7°C
Wilgotność 87%
Ciśnienie 1009 hPa
Widzialność: 8.0 km
Rozproszone chmury na wysokości 700 ft
Zachmurzenie całkowite na wysokości 1300 ft
zamglenie

METAR: KOQU 040250Z 04030KT 5SM BR SCT007 OVC013 07/05 A2979 RMK LAST

czas: 23:16 (03:16 UTC)


TAF: brakujący

Obserwacja i prognoza pogody dla ponad 4000 lotnisk (raport METAR i TAF).

Dostępne stacje oznaczono żółtymi i czerwonymi punktami na mapie.

Najedź kursorem aby zobaczyć nazwę stacji.

Kliknij aby zobaczyć obserwacje i prognozy pogody.

Aby zmienić mapę: kliknij na zielony przycisk z czarnym krzyżykiem, aby powiększyć; na zielony przycisk z myślnikiem, aby pomniejszyć; na zielone strzałki, aby przejść do map sąsiednich.


METAR-TAF: